Time;durP1;ratioP1;P1;durP2;ratioP2;P2;SDS_P1;SDS_P2;PMS_P1;PMS_P2;Temp;Humidity;BMP_temperature;BMP_pressure;BME280_temperature;BME280_humidity;BME280_pressure;Samples;Min_cycle;Max_cycle;Signal;HPM_P1;HPM_P2
2021/03/02 00:00:00;;;;;;;0.77;0.77;;;;;;;;;;5052839;28;20651;-64
2021/03/02 00:02:27;;;;;;;1.42;1.33;;;;;;;;;;5053503;28;20171;-64
2021/03/02 00:04:53;;;;;;;2.35;1.23;;;;;;;;;;5053403;28;20552;-64
2021/03/02 00:07:19;;;;;;;0.98;0.98;;;;;;;;;;5053102;28;20247;-64
2021/03/02 00:09:45;;;;;;;0.90;0.90;;;;;;;;;;5053024;28;20196;-63
2021/03/02 00:12:14;;;;;;;0.60;0.60;;;;;;;;;;5053362;28;20176;-64
2021/03/02 00:14:40;;;;;;;2.00;1.88;;;;;;;;;;5053154;28;20234;-64
2021/03/02 00:17:14;;;;;;;1.45;1.13;;;;;;;;;;5052990;28;20626;-64
2021/03/02 00:19:44;;;;;;;0.90;0.90;;;;;;;;;;5052395;28;20182;-63
2021/03/02 00:22:20;;;;;;;1.25;1.15;;;;;;;;;;5053202;28;20168;-64
2021/03/02 00:24:50;;;;;;;1.50;1.33;;;;;;;;;;5053041;28;20176;-64
2021/03/02 00:27:17;;;;;;;0.70;0.70;;;;;;;;;;5052909;28;20564;-64
2021/03/02 00:29:43;;;;;;;2.45;1.17;;;;;;;;;;5052264;28;20169;-64
2021/03/02 00:32:10;;;;;;;1.70;1.58;;;;;;;;;;5053116;28;20211;-64
2021/03/02 00:34:36;;;;;;;1.30;1.20;;;;;;;;;;5052903;28;20259;-65
2021/03/02 00:37:02;;;;;;;1.05;0.95;;;;;;;;;;5052572;28;20200;-64
2021/03/02 00:39:28;;;;;;;1.48;0.93;;;;;;;;;;5052093;28;20200;-64
2021/03/02 00:41:54;;;;;;;1.25;1.25;;;;;;;;;;5052811;28;20208;-64
2021/03/02 00:44:20;;;;;;;0.60;0.60;;;;;;;;;;5051454;28;20176;-65
2021/03/02 00:46:46;;;;;;;1.10;0.70;;;;;;;;;;5052364;28;20412;-65
2021/03/02 00:49:12;;;;;;;0.70;0.70;;;;;;;;;;5051947;28;20407;-64
2021/03/02 00:51:38;;;;;;;4.72;1.95;;;;;;;;;;5051264;28;20669;-64
2021/03/02 00:54:04;;;;;;;0.60;0.60;;;;;;;;;;5052852;28;20184;-64
2021/03/02 00:56:30;;;;;;;0.40;0.40;;;;;;;;;;5052345;28;20226;-64
2021/03/02 00:58:56;;;;;;;1.53;1.43;;;;;;;;;;5051614;28;20697;-63
2021/03/02 01:01:23;;;;;;;0.70;0.60;;;;;;;;;;5052268;28;20407;-64
2021/03/02 01:03:49;;;;;;;1.15;1.08;;;;;;;;;;5052426;28;20426;-63
2021/03/02 01:06:15;;;;;;;0.60;0.60;;;;;;;;;;5051459;28;20667;-63
2021/03/02 01:08:41;;;;;;;0.73;0.73;;;;;;;;;;5050635;28;20219;-63
2021/03/02 01:11:07;;;;;;;1.35;1.35;;;;;;;;;;5051997;28;20198;-64
2021/03/02 01:13:33;;;;;;;1.40;1.30;;;;;;;;;;5052089;28;20259;-64
2021/03/02 01:15:59;;;;;;;1.13;1.13;;;;;;;;;;5052111;28;20213;-64
2021/03/02 01:18:25;;;;;;;2.30;1.07;;;;;;;;;;5051921;28;20188;-64
2021/03/02 01:20:51;;;;;;;1.20;1.10;;;;;;;;;;5051423;28;20433;-64
2021/03/02 01:23:17;;;;;;;1.63;1.30;;;;;;;;;;5051951;28;20208;-64
2021/03/02 01:25:43;;;;;;;3.33;1.58;;;;;;;;;;5051978;28;20395;-64
2021/03/02 01:28:09;;;;;;;1.67;1.58;;;;;;;;;;5051767;28;20271;-64
2021/03/02 01:30:35;;;;;;;1.83;1.45;;;;;;;;;;5051170;28;20173;-64
2021/03/02 01:33:01;;;;;;;1.02;1.02;;;;;;;;;;5050703;28;20187;-64
2021/03/02 01:35:27;;;;;;;0.85;0.85;;;;;;;;;;5051682;28;20172;-64
2021/03/02 01:37:53;;;;;;;0.60;0.60;;;;;;;;;;5050280;28;20196;-64
2021/03/02 01:40:20;;;;;;;0.70;0.70;;;;;;;;;;5051137;28;20593;-64
2021/03/02 01:42:46;;;;;;;1.13;1.13;;;;;;;;;;5051690;28;20462;-65
2021/03/02 01:45:13;;;;;;;1.52;1.50;;;;;;;;;;5050272;28;20210;-64
2021/03/02 01:47:40;;;;;;;0.77;0.75;;;;;;;;;;5051321;28;20274;-64
2021/03/02 01:50:07;;;;;;;0.73;0.73;;;;;;;;;;5050908;28;20675;-63
2021/03/02 01:52:33;;;;;;;1.38;1.23;;;;;;;;;;5051535;28;20255;-63
2021/03/02 01:54:59;;;;;;;2.22;1.42;;;;;;;;;;5051604;28;20234;-63
2021/03/02 01:57:25;;;;;;;0.80;0.80;;;;;;;;;;5051259;28;20238;-64
2021/03/02 01:59:51;;;;;;;2.55;1.15;;;;;;;;;;5050641;28;20211;-65
2021/03/02 02:02:22;;;;;;;1.00;1.00;;;;;;;;;;5051363;28;20259;-65
2021/03/02 02:04:56;;;;;;;1.65;1.55;;;;;;;;;;5051443;28;20579;-65
2021/03/02 02:07:27;;;;;;;0.50;0.50;;;;;;;;;;5051202;28;20213;-65
2021/03/02 02:10:29;;;;;;;1.00;0.90;;;;;;;;;;5050633;28;20187;-65
2021/03/02 02:13:02;;;;;;;2.67;2.05;;;;;;;;;;5028935;28;20303;-64
2021/03/02 02:15:29;;;;;;;2.22;2.08;;;;;;;;;;5049459;28;20202;-64
2021/03/02 02:17:58;;;;;;;1.25;1.17;;;;;;;;;;5055160;28;20234;-63
2021/03/02 02:20:27;;;;;;;0.75;0.75;;;;;;;;;;5054737;28;20176;-63
2021/03/02 02:23:04;;;;;;;2.15;1.05;;;;;;;;;;5054064;28;20802;-63
2021/03/02 02:25:45;;;;;;;1.17;1.17;;;;;;;;;;5055338;28;20170;-63
2021/03/02 02:28:13;;;;;;;0.60;0.60;;;;;;;;;;5055529;28;20188;-63
2021/03/02 02:30:41;;;;;;;0.70;0.50;;;;;;;;;;5054591;28;20199;-63
2021/03/02 02:33:08;;;;;;;1.70;1.27;;;;;;;;;;5055107;28;20173;-63
2021/03/02 02:35:35;;;;;;;2.35;2.25;;;;;;;;;;5055289;28;20551;-63
2021/03/02 02:38:02;;;;;;;0.60;0.60;;;;;;;;;;5054723;28;20187;-64
2021/03/02 02:40:28;;;;;;;0.90;0.90;;;;;;;;;;5054415;28;20321;-64
2021/03/02 02:42:54;;;;;;;1.10;1.10;;;;;;;;;;5053003;28;20172;-64
2021/03/02 02:45:21;;;;;;;1.50;1.40;;;;;;;;;;5055009;28;20635;-64
2021/03/02 02:47:49;;;;;;;0.60;0.60;;;;;;;;;;5054744;28;20187;-64
2021/03/02 02:50:15;;;;;;;1.52;1.17;;;;;;;;;;5054225;28;20254;-64
2021/03/02 02:52:42;;;;;;;0.93;0.93;;;;;;;;;;5054836;28;20182;-64
2021/03/02 02:55:09;;;;;;;0.70;0.70;;;;;;;;;;5054719;28;20263;-64
2021/03/02 02:57:37;;;;;;;0.60;0.60;;;;;;;;;;5054518;28;20223;-65
2021/03/02 03:00:03;;;;;;;2.40;1.88;;;;;;;;;;5054070;28;20666;-65
2021/03/02 03:02:30;;;;;;;0.50;0.50;;;;;;;;;;5054726;28;20309;-65
2021/03/02 03:05:00;;;;;;;3.33;1.80;;;;;;;;;;5054907;28;20168;-65
2021/03/02 03:07:37;;;;;;;2.88;2.15;;;;;;;;;;5078906;22;20204;-56
2021/03/02 03:10:06;;;;;;;3.22;1.88;;;;;;;;;;5094002;28;20277;-64
2021/03/02 03:12:32;;;;;;;0.80;0.80;;;;;;;;;;5094774;28;20529;-64
2021/03/02 03:15:00;;;;;;;3.70;1.13;;;;;;;;;;5094789;28;20174;-64
2021/03/02 03:17:29;;;;;;;1.45;0.95;;;;;;;;;;5094480;28;20233;-64
2021/03/02 03:19:55;;;;;;;0.75;0.75;;;;;;;;;;5094035;28;20658;-64
2021/03/02 03:22:21;;;;;;;0.93;0.93;;;;;;;;;;5094670;28;20223;-65
2021/03/02 03:24:47;;;;;;;0.70;0.70;;;;;;;;;;5094489;28;20194;-65
2021/03/02 03:27:14;;;;;;;1.50;1.40;;;;;;;;;;5094326;28;20194;-65
2021/03/02 03:29:41;;;;;;;0.88;0.88;;;;;;;;;;5093784;28;20197;-65
2021/03/02 03:32:08;;;;;;;1.02;1.02;;;;;;;;;;5094351;28;20205;-65
2021/03/02 03:34:34;;;;;;;3.28;3.05;;;;;;;;;;5094218;28;20664;-65
2021/03/02 03:37:00;;;;;;;1.15;1.15;;;;;;;;;;5094130;28;20206;-65
2021/03/02 03:39:26;;;;;;;1.17;1.17;;;;;;;;;;5093450;28;20236;-65
2021/03/02 03:41:52;;;;;;;0.98;0.98;;;;;;;;;;5094236;28;20198;-64
2021/03/02 03:44:18;;;;;;;1.00;1.00;;;;;;;;;;5094140;28;20163;-65
2021/03/02 03:46:44;;;;;;;1.70;1.60;;;;;;;;;;5075860;28;20205;-64
2021/03/02 03:49:10;;;;;;;2.08;1.88;;;;;;;;;;5093176;28;20297;-65
2021/03/02 03:51:38;;;;;;;1.10;1.00;;;;;;;;;;5075826;28;20170;-65
2021/03/02 03:54:05;;;;;;;1.88;1.80;;;;;;;;;;5075734;28;20178;-65
2021/03/02 03:56:31;;;;;;;1.95;1.85;;;;;;;;;;5093687;28;20279;-65
2021/03/02 03:58:58;;;;;;;1.60;1.50;;;;;;;;;;5093059;28;20190;-65
2021/03/02 04:01:24;;;;;;;2.08;1.23;;;;;;;;;;5094271;28;20159;-65
2021/03/02 04:03:51;;;;;;;1.00;1.00;;;;;;;;;;5093767;28;20190;-65
2021/03/02 04:06:17;;;;;;;4.13;3.05;;;;;;;;;;5093794;28;20209;-65
2021/03/02 04:08:43;;;;;;;2.88;2.20;;;;;;;;;;5093146;28;20770;-65
2021/03/02 04:11:09;;;;;;;2.13;2.03;;;;;;;;;;5093591;28;20213;-64
2021/03/02 04:13:37;;;;;;;2.63;2.42;;;;;;;;;;5093883;28;20170;-65
2021/03/02 04:16:03;;;;;;;1.42;1.42;;;;;;;;;;5093533;28;20543;-64
2021/03/02 04:18:29;;;;;;;1.33;1.33;;;;;;;;;;5093524;28;20193;-65
2021/03/02 04:20:55;;;;;;;0.63;0.63;;;;;;;;;;5092796;28;20171;-64
2021/03/02 04:23:21;;;;;;;1.02;1.02;;;;;;;;;;5093385;28;20174;-65
2021/03/02 04:25:48;;;;;;;0.73;0.60;;;;;;;;;;5093462;28;20178;-65
2021/03/02 04:28:14;;;;;;;1.38;1.38;;;;;;;;;;5093109;28;20226;-65
2021/03/02 04:30:40;;;;;;;0.77;0.77;;;;;;;;;;5092466;28;20181;-65
2021/03/02 04:33:06;;;;;;;1.95;1.85;;;;;;;;;;5093195;28;20641;-65
2021/03/02 04:35:32;;;;;;;1.27;1.17;;;;;;;;;;5093218;28;20664;-65
2021/03/02 04:37:58;;;;;;;1.05;1.05;;;;;;;;;;5092284;28;20237;-65
2021/03/02 04:40:24;;;;;;;1.95;1.85;;;;;;;;;;5092411;28;20178;-64
2021/03/02 04:42:50;;;;;;;1.33;1.33;;;;;;;;;;5092978;28;20175;-64
2021/03/02 04:45:16;;;;;;;1.38;1.30;;;;;;;;;;5092792;28;20685;-64
2021/03/02 04:47:44;;;;;;;2.25;2.15;;;;;;;;;;5092893;28;20689;-64
2021/03/02 04:50:11;;;;;;;0.75;0.75;;;;;;;;;;5092184;28;20178;-65
2021/03/02 04:52:37;;;;;;;0.70;0.70;;;;;;;;;;5092838;28;20205;-64
2021/03/02 04:55:03;;;;;;;0.52;0.52;;;;;;;;;;5092737;28;20202;-64
2021/03/02 04:57:29;;;;;;;2.53;2.00;;;;;;;;;;5092549;28;20251;-64
2021/03/02 04:59:55;;;;;;;2.08;1.98;;;;;;;;;;5091903;28;20572;-64
2021/03/02 05:02:21;;;;;;;1.23;1.23;;;;;;;;;;5091554;28;20171;-64
2021/03/02 05:04:47;;;;;;;1.63;1.52;;;;;;;;;;5092683;28;20220;-64
2021/03/02 05:07:13;;;;;;;1.30;1.30;;;;;;;;;;5092276;28;20171;-64
2021/03/02 05:09:39;;;;;;;2.58;2.45;;;;;;;;;;5091889;28;20294;-64
2021/03/02 05:12:06;;;;;;;1.17;1.13;;;;;;;;;;5092490;28;20209;-64
2021/03/02 05:14:32;;;;;;;0.93;0.93;;;;;;;;;;5092019;28;20185;-65
2021/03/02 05:16:58;;;;;;;1.38;1.38;;;;;;;;;;5091943;28;20191;-65
2021/03/02 05:19:24;;;;;;;0.68;0.68;;;;;;;;;;5091245;28;20197;-65
2021/03/02 05:21:50;;;;;;;1.67;1.58;;;;;;;;;;5091471;28;20190;-63
2021/03/02 05:24:16;;;;;;;0.63;0.63;;;;;;;;;;5091692;28;20645;-63
2021/03/02 05:26:42;;;;;;;0.80;0.80;;;;;;;;;;5091507;28;20243;-63
2021/03/02 05:29:08;;;;;;;1.20;1.10;;;;;;;;;;5090891;28;20267;-64
2021/03/02 05:31:34;;;;;;;0.60;0.60;;;;;;;;;;5090583;28;20646;-60
2021/03/02 05:34:00;;;;;;;3.60;1.27;;;;;;;;;;5092077;28;20175;-64
2021/03/02 05:36:26;;;;;;;0.60;0.60;;;;;;;;;;5091377;28;21045;-65
2021/03/02 05:38:52;;;;;;;1.55;1.45;;;;;;;;;;5091334;28;20190;-63
2021/03/02 05:41:18;;;;;;;1.30;1.30;;;;;;;;;;5091901;28;20166;-65
2021/03/02 05:43:45;;;;;;;2.78;2.67;;;;;;;;;;5092153;28;20816;-65
2021/03/02 05:46:11;;;;;;;1.63;1.52;;;;;;;;;;5091891;28;20595;-65
2021/03/02 05:48:41;;;;;;;0.70;0.70;;;;;;;;;;5091599;28;20248;-65
2021/03/02 05:51:07;;;;;;;0.98;0.98;;;;;;;;;;5090378;28;20178;-65
2021/03/02 05:53:34;;;;;;;1.50;1.50;;;;;;;;;;5091600;28;20174;-65
2021/03/02 05:56:00;;;;;;;1.55;1.45;;;;;;;;;;5091816;28;20202;-65
2021/03/02 05:58:26;;;;;;;1.45;1.40;;;;;;;;;;5091462;28;20232;-64
2021/03/02 06:00:53;;;;;;;1.80;1.70;;;;;;;;;;5091244;28;20250;-64
2021/03/02 06:03:19;;;;;;;2.08;1.98;;;;;;;;;;5091730;28;20545;-63
2021/03/02 06:05:46;;;;;;;2.53;2.40;;;;;;;;;;5086536;28;20179;-63
2021/03/02 06:08:12;;;;;;;2.40;2.08;;;;;;;;;;5071000;28;20261;-63
2021/03/02 06:10:38;;;;;;;4.97;3.28;;;;;;;;;;5070390;28;20584;-65
2021/03/02 06:13:04;;;;;;;1.02;1.02;;;;;;;;;;5071099;28;20203;-65
2021/03/02 06:15:31;;;;;;;1.35;1.35;;;;;;;;;;5077683;28;20261;-63
2021/03/02 06:18:09;;;;;;;2.70;2.22;;;;;;;;;;5090476;28;20205;-65
2021/03/02 06:20:35;;;;;;;2.13;1.40;;;;;;;;;;5090499;28;20589;-65
2021/03/02 06:23:18;;;;;;;3.40;3.10;;;;;;;;;;5091544;28;20183;-65
2021/03/02 06:25:44;;;;;;;3.03;2.42;;;;;;;;;;5090287;28;20167;-64
2021/03/02 06:28:11;;;;;;;0.80;0.80;;;;;;;;;;5088092;28;20285;-62
2021/03/02 06:30:38;;;;;;;1.05;1.05;;;;;;;;;;5089107;28;20185;-64
2021/03/02 06:33:04;;;;;;;1.13;1.13;;;;;;;;;;5087572;28;20209;-65
2021/03/02 06:35:34;;;;;;;0.73;0.73;;;;;;;;;;5089251;28;20719;-65
2021/03/02 06:38:01;;;;;;;1.25;1.25;;;;;;;;;;5081668;28;20286;-65
2021/03/02 06:40:37;;;;;;;0.82;0.82;;;;;;;;;;5085986;28;20654;-65
2021/03/02 06:43:03;;;;;;;1.95;1.85;;;;;;;;;;5090513;28;20241;-66
2021/03/02 06:45:29;;;;;;;2.90;2.03;;;;;;;;;;5089939;28;20185;-65
2021/03/02 06:48:01;;;;;;;2.65;2.45;;;;;;;;;;5089761;28;20194;-65
2021/03/02 06:50:27;;;;;;;1.05;0.98;;;;;;;;;;5089478;28;20224;-66
2021/03/02 06:52:54;;;;;;;7.00;2.42;;;;;;;;;;5090204;28;20596;-65
2021/03/02 06:55:20;;;;;;;1.42;1.35;;;;;;;;;;5089872;28;20186;-64
2021/03/02 06:57:46;;;;;;;2.90;2.80;;;;;;;;;;5088857;28;20623;-65
2021/03/02 07:00:13;;;;;;;2.17;2.08;;;;;;;;;;5089634;28;20253;-65
2021/03/02 07:02:39;;;;;;;2.55;2.35;;;;;;;;;;5093809;28;20246;-65
2021/03/02 07:05:06;;;;;;;1.20;1.20;;;;;;;;;;5094068;28;20174;-65
2021/03/02 07:07:32;;;;;;;3.30;3.20;;;;;;;;;;5093940;28;20400;-64
2021/03/02 07:10:00;;;;;;;1.48;1.38;;;;;;;;;;5092270;28;20263;-64
2021/03/02 07:12:28;;;;;;;2.00;1.90;;;;;;;;;;5094016;28;20211;-64
2021/03/02 07:14:56;;;;;;;3.03;2.80;;;;;;;;;;5094124;28;20261;-65
2021/03/02 07:17:22;;;;;;;7.43;1.13;;;;;;;;;;5093983;28;20206;-65
2021/03/02 07:19:48;;;;;;;0.47;0.47;;;;;;;;;;5091875;28;20175;-65
2021/03/02 07:22:14;;;;;;;1.45;1.40;;;;;;;;;;5093828;28;20206;-64
2021/03/02 07:24:40;;;;;;;3.00;2.78;;;;;;;;;;5094056;28;20698;-64
2021/03/02 07:27:09;;;;;;;3.25;3.05;;;;;;;;;;5093970;28;20170;-65
2021/03/02 07:29:35;;;;;;;1.58;1.48;;;;;;;;;;5093145;28;20688;-65
2021/03/02 07:32:02;;;;;;;1.25;1.05;;;;;;;;;;5092413;28;20253;-64
2021/03/02 07:34:28;;;;;;;2.20;2.10;;;;;;;;;;5075343;28;20557;-65
2021/03/02 07:36:55;;;;;;;2.65;2.50;;;;;;;;;;5093662;28;20310;-65
2021/03/02 07:39:23;;;;;;;2.28;2.17;;;;;;;;;;5092975;28;20187;-65
2021/03/02 07:41:51;;;;;;;2.38;2.10;;;;;;;;;;5092494;28;20240;-65
2021/03/02 07:44:17;;;;;;;1.02;1.00;;;;;;;;;;5093535;28;20166;-64
2021/03/02 07:46:45;;;;;;;4.65;2.25;;;;;;;;;;5093375;28;20180;-64
2021/03/02 07:49:23;;;;;;;0.70;0.70;;;;;;;;;;5092685;28;20269;-64
2021/03/02 07:52:01;;;;;;;3.45;1.75;;;;;;;;;;5093259;28;20182;-65
2021/03/02 07:54:28;;;;;;;2.10;2.00;;;;;;;;;;5091745;28;20261;-64
2021/03/02 07:57:13;;;;;;;3.00;2.90;;;;;;;;;;5093350;28;20234;-65
2021/03/02 07:59:39;;;;;;;2.00;1.90;;;;;;;;;;5092534;28;20171;-64
2021/03/02 08:02:21;;;;;;;1.02;1.02;;;;;;;;;;5093353;28;20190;-64
2021/03/02 08:04:48;;;;;;;1.42;1.35;;;;;;;;;;5091701;28;20184;-65
2021/03/02 08:07:21;;;;;;;3.03;2.80;;;;;;;;;;5092851;28;20174;-65
2021/03/02 08:09:49;;;;;;;1.40;1.40;;;;;;;;;;5092516;28;20178;-64
2021/03/02 08:12:26;;;;;;;1.25;1.25;;;;;;;;;;5092478;28;20263;-64
2021/03/02 08:14:52;;;;;;;0.95;0.95;;;;;;;;;;5092326;28;20170;-64
2021/03/02 08:17:22;;;;;;;3.87;2.73;;;;;;;;;;5091776;28;20210;-63
2021/03/02 08:19:49;;;;;;;1.13;1.13;;;;;;;;;;5092154;28;20480;-64
2021/03/02 08:22:18;;;;;;;2.33;2.22;;;;;;;;;;5092881;28;20210;-64
2021/03/02 08:24:59;;;;;;;1.40;1.40;;;;;;;;;;5092536;28;20172;-64
2021/03/02 08:27:40;;;;;;;1.30;1.30;;;;;;;;;;5091272;28;20558;-65
2021/03/02 08:30:11;;;;;;;1.50;1.40;;;;;;;;;;5092147;28;20646;-64
2021/03/02 08:32:38;;;;;;;1.55;1.45;;;;;;;;;;5092627;28;20258;-64
2021/03/02 08:35:04;;;;;;;2.25;2.15;;;;;;;;;;5092857;28;20177;-64
2021/03/02 08:37:37;;;;;;;1.90;1.80;;;;;;;;;;5091331;28;20199;-65
2021/03/02 08:40:04;;;;;;;2.90;2.58;;;;;;;;;;5091287;28;20170;-64
2021/03/02 08:42:30;;;;;;;2.55;2.30;;;;;;;;;;5092636;28;20204;-64
2021/03/02 08:45:09;;;;;;;2.33;2.13;;;;;;;;;;5092845;28;20197;-64
2021/03/02 08:47:35;;;;;;;3.00;2.70;;;;;;;;;;5092248;28;20435;-65
2021/03/02 08:50:03;;;;;;;1.90;1.80;;;;;;;;;;5090385;28;20209;-63
2021/03/02 08:52:35;;;;;;;10.07;4.93;;;;;;;;;;5092320;28;20204;-65
2021/03/02 08:55:01;;;;;;;4.75;2.05;;;;;;;;;;5074362;28;20178;-65
2021/03/02 08:57:27;;;;;;;4.75;3.30;;;;;;;;;;5091903;28;20198;-65
2021/03/02 08:59:53;;;;;;;5.93;2.93;;;;;;;;;;5090469;28;20699;-65
2021/03/02 09:02:19;;;;;;;3.63;2.40;;;;;;;;;;5091840;28;20488;-64
2021/03/02 09:04:45;;;;;;;10.73;3.17;;;;;;;;;;5091914;28;20401;-64
2021/03/02 09:07:12;;;;;;;2.97;2.67;;;;;;;;;;5091950;28;20403;-64
2021/03/02 09:09:38;;;;;;;3.73;3.43;;;;;;;;;;5108444;22;20978;-64
2021/03/02 09:12:05;;;;;;;5.63;2.97;;;;;;;;;;5089347;28;20779;-65
2021/03/02 09:14:35;;;;;;;7.63;3.27;;;;;;;;;;5091715;28;20392;-65
2021/03/02 09:17:02;;;;;;;5.00;3.30;;;;;;;;;;5091701;28;20456;-64
2021/03/02 09:19:28;;;;;;;10.50;3.90;;;;;;;;;;5090933;28;20927;-65
2021/03/02 09:22:04;;;;;;;5.30;3.60;;;;;;;;;;5090931;28;20400;-65
2021/03/02 09:24:31;;;;;;;5.70;3.73;;;;;;;;;;5090862;28;20400;-64
2021/03/02 09:26:57;;;;;;;5.67;3.40;;;;;;;;;;5091456;28;20463;-64
2021/03/02 09:29:24;;;;;;;3.97;3.53;;;;;;;;;;5090835;28;20395;-64
2021/03/02 09:31:51;;;;;;;6.27;3.40;;;;;;;;;;5091568;28;20427;-64
2021/03/02 09:34:17;;;;;;;5.73;3.73;;;;;;;;;;5090143;28;20397;-64
2021/03/02 09:36:44;;;;;;;4.80;3.17;;;;;;;;;;5091298;28;20429;-64
2021/03/02 09:39:20;;;;;;;5.13;4.17;;;;;;;;;;5090531;28;20875;-64
2021/03/02 09:41:47;;;;;;;4.63;3.37;;;;;;;;;;5091318;28;20926;-64
2021/03/02 09:44:18;;;;;;;7.80;4.13;;;;;;;;;;5090525;28;20427;-64
2021/03/02 09:46:44;;;;;;;4.67;3.47;;;;;;;;;;5090348;28;20379;-65
2021/03/02 09:49:10;;;;;;;7.13;3.53;;;;;;;;;;5090443;28;20420;-64
2021/03/02 09:51:36;;;;;;;5.10;3.33;;;;;;;;;;5091028;28;20376;-65
2021/03/02 09:54:16;;;;;;;5.07;3.50;;;;;;;;;;5091184;28;20483;-65
2021/03/02 09:56:45;;;;;;;5.63;2.90;;;;;;;;;;5089505;28;20455;-64
2021/03/02 09:59:19;;;;;;;3.20;2.90;;;;;;;;;;5090253;28;20432;-64
2021/03/02 10:01:45;;;;;;;3.97;3.33;;;;;;;;;;5091594;28;20406;-64
2021/03/02 10:04:11;;;;;;;6.30;3.50;;;;;;;;;;5091406;28;20397;-64
2021/03/02 10:06:37;;;;;;;8.10;3.73;;;;;;;;;;5090040;28;20397;-64
2021/03/02 10:09:03;;;;;;;5.47;2.83;;;;;;;;;;5089503;28;20448;-64
2021/03/02 10:11:30;;;;;;;3.37;3.03;;;;;;;;;;5091000;28;20404;-67
2021/03/02 10:13:57;;;;;;;3.50;3.20;;;;;;;;;;5090887;28;20417;-64
2021/03/02 10:16:35;;;;;;;6.73;3.30;;;;;;;;;;5090305;28;20517;-64
2021/03/02 10:19:20;;;;;;;3.43;3.00;;;;;;;;;;5088667;28;20406;-64
2021/03/02 10:21:48;;;;;;;4.00;3.20;;;;;;;;;;5090708;28;20379;-64
2021/03/02 10:24:32;;;;;;;4.10;2.90;;;;;;;;;;5090795;28;20378;-64
2021/03/02 10:26:59;;;;;;;4.47;3.23;;;;;;;;;;5090626;28;20962;-65
2021/03/02 10:29:26;;;;;;;5.57;2.53;;;;;;;;;;5070745;28;20950;-64
2021/03/02 10:31:52;;;;;;;5.17;3.30;;;;;;;;;;5090328;28;20382;-64
2021/03/02 10:34:19;;;;;;;4.33;3.37;;;;;;;;;;5090890;28;20406;-64
2021/03/02 10:36:46;;;;;;;6.90;4.20;;;;;;;;;;5092479;28;20501;-64
2021/03/02 10:39:13;;;;;;;4.77;3.33;;;;;;;;;;5094073;28;20429;-64
2021/03/02 10:41:40;;;;;;;5.37;3.77;;;;;;;;;;5093179;28;20898;-65
2021/03/02 10:44:06;;;;;;;4.33;2.90;;;;;;;;;;5094636;28;20408;-64
2021/03/02 10:46:32;;;;;;;4.33;3.03;;;;;;;;;;5094418;28;20382;-64
2021/03/02 10:48:59;;;;;;;5.83;3.37;;;;;;;;;;5093594;28;20435;-64
2021/03/02 10:51:25;;;;;;;4.00;2.70;;;;;;;;;;5093714;28;20914;-64
2021/03/02 10:53:51;;;;;;;5.03;2.77;;;;;;;;;;5093869;28;20425;-64
2021/03/02 10:56:18;;;;;;;4.90;3.17;;;;;;;;;;5094256;28;20491;-64
2021/03/02 10:58:44;;;;;;;3.47;3.00;;;;;;;;;;5093821;28;20431;-64
2021/03/02 11:01:11;;;;;;;4.90;3.17;;;;;;;;;;5094159;28;20405;-65
2021/03/02 11:03:37;;;;;;;4.77;3.10;;;;;;;;;;5092773;28;20410;-64
2021/03/02 11:06:03;;;;;;;5.07;3.10;;;;;;;;;;5094103;28;20491;-64
2021/03/02 11:08:29;;;;;;;6.80;3.53;;;;;;;;;;5093825;28;20444;-65
2021/03/02 11:10:55;;;;;;;5.63;3.10;;;;;;;;;;5093520;28;20387;-64
2021/03/02 11:13:21;;;;;;;3.30;2.50;;;;;;;;;;5093741;28;20409;-64
2021/03/02 11:15:47;;;;;;;7.17;3.50;;;;;;;;;;5092945;28;20374;-65
2021/03/02 11:18:13;;;;;;;5.37;2.80;;;;;;;;;;5093711;28;20509;-64
2021/03/02 11:20:42;;;;;;;7.50;2.87;;;;;;;;;;5092956;28;20495;-65
2021/03/02 11:23:09;;;;;;;3.77;2.70;;;;;;;;;;5093749;28;20413;-65
2021/03/02 11:25:35;;;;;;;3.60;3.10;;;;;;;;;;5092430;28;20379;-65
2021/03/02 11:28:01;;;;;;;5.03;3.97;;;;;;;;;;5093769;28;20399;-65
2021/03/02 11:30:27;;;;;;;7.53;2.83;;;;;;;;;;5093067;28;20405;-65
2021/03/02 11:32:53;;;;;;;4.20;2.80;;;;;;;;;;5093721;28;20787;-64
2021/03/02 11:35:19;;;;;;;5.13;3.50;;;;;;;;;;5093652;28;20412;-64
2021/03/02 11:37:45;;;;;;;6.00;3.97;;;;;;;;;;5091832;28;20419;-65
2021/03/02 11:40:16;;;;;;;9.80;3.63;;;;;;;;;;5093160;28;20408;-64
2021/03/02 11:42:42;;;;;;;5.37;3.50;;;;;;;;;;5093582;28;20484;-64
2021/03/02 11:45:09;;;;;;;7.20;3.27;;;;;;;;;;5093497;28;20404;-64
2021/03/02 11:47:35;;;;;;;5.90;3.70;;;;;;;;;;5090666;28;20408;-64
2021/03/02 11:50:01;;;;;;;5.23;4.00;;;;;;;;;;5074450;28;20427;-64
2021/03/02 11:52:27;;;;;;;7.57;4.30;;;;;;;;;;5093109;28;20828;-64
2021/03/02 11:54:53;;;;;;;3.73;3.00;;;;;;;;;;5092974;28;20413;-64
2021/03/02 11:57:20;;;;;;;5.37;3.50;;;;;;;;;;5093083;28;20454;-64
2021/03/02 11:59:46;;;;;;;4.90;3.37;;;;;;;;;;5091317;28;20783;-65
2021/03/02 12:02:13;;;;;;;4.17;3.77;;;;;;;;;;5093155;28;20454;-64
2021/03/02 12:04:40;;;;;;;6.50;3.60;;;;;;;;;;5093029;28;20416;-64
2021/03/02 12:07:06;;;;;;;4.80;3.20;;;;;;;;;;5092997;28;20936;-65
2021/03/02 12:09:32;;;;;;;5.43;3.60;;;;;;;;;;5091385;28;20490;-64
2021/03/02 12:11:58;;;;;;;6.27;3.80;;;;;;;;;;5092346;28;20408;-64
2021/03/02 12:14:24;;;;;;;4.93;3.57;;;;;;;;;;5092890;28;20432;-64
2021/03/02 12:16:50;;;;;;;5.10;3.13;;;;;;;;;;5092755;28;20490;-64
2021/03/02 12:19:16;;;;;;;5.37;3.70;;;;;;;;;;5092111;28;20420;-64
2021/03/02 12:21:42;;;;;;;4.53;3.33;;;;;;;;;;5091238;28;20402;-64
2021/03/02 12:24:08;;;;;;;5.57;3.47;;;;;;;;;;5092863;28;20731;-64
2021/03/02 12:26:34;;;;;;;3.33;2.90;;;;;;;;;;5092311;28;20423;-64
2021/03/02 12:29:00;;;;;;;3.53;2.53;;;;;;;;;;5091515;28;20410;-64
2021/03/02 12:31:27;;;;;;;4.57;2.80;;;;;;;;;;5092318;28;20411;-64
2021/03/02 12:33:54;;;;;;;4.57;3.50;;;;;;;;;;5091485;28;20386;-64
2021/03/02 12:36:20;;;;;;;6.30;2.83;;;;;;;;;;5092432;28;20448;-64
2021/03/02 12:38:46;;;;;;;4.73;3.03;;;;;;;;;;5092109;28;20803;-63
2021/03/02 12:41:12;;;;;;;3.80;2.83;;;;;;;;;;5092354;28;20544;-64
2021/03/02 12:43:38;;;;;;;7.17;3.00;;;;;;;;;;5090905;28;20935;-64
2021/03/02 12:46:04;;;;;;;5.13;2.57;;;;;;;;;;5092170;28;20424;-63
2021/03/02 12:48:30;;;;;;;11.70;2.80;;;;;;;;;;5092487;28;20435;-64
2021/03/02 12:50:56;;;;;;;2.97;2.70;;;;;;;;;;5091794;28;20411;-64
2021/03/02 12:53:22;;;;;;;4.93;3.20;;;;;;;;;;5092479;28;20376;-64
2021/03/02 12:55:48;;;;;;;4.63;2.90;;;;;;;;;;5091230;28;20383;-64
2021/03/02 12:58:14;;;;;;;4.90;3.30;;;;;;;;;;5091440;28;20456;-64
2021/03/02 13:00:40;;;;;;;3.50;3.20;;;;;;;;;;5091001;28;20466;-64
2021/03/02 13:03:07;;;;;;;4.17;2.80;;;;;;;;;;5091719;28;20496;-64
2021/03/02 13:05:33;;;;;;;4.93;2.60;;;;;;;;;;5090714;28;20408;-64
2021/03/02 13:07:59;;;;;;;4.07;3.00;;;;;;;;;;5091491;28;20440;-64
2021/03/02 13:10:25;;;;;;;4.70;3.30;;;;;;;;;;5091235;28;20420;-64
2021/03/02 13:12:52;;;;;;;7.17;3.17;;;;;;;;;;5091879;28;20409;-64
2021/03/02 13:15:18;;;;;;;3.30;2.93;;;;;;;;;;5091726;28;20413;-64
2021/03/02 13:17:45;;;;;;;6.37;4.07;;;;;;;;;;5089912;28;20461;-63
2021/03/02 13:20:12;;;;;;;6.40;3.00;;;;;;;;;;5091041;28;20382;-64
2021/03/02 13:22:38;;;;;;;7.07;3.53;;;;;;;;;;5091806;28;20387;-64
2021/03/02 13:25:05;;;;;;;3.60;2.53;;;;;;;;;;5091714;28;20779;-64
2021/03/02 13:27:32;;;;;;;5.43;3.57;;;;;;;;;;5090876;28;20410;-64
2021/03/02 13:30:00;;;;;;;5.20;3.43;;;;;;;;;;5090014;28;20428;-64
2021/03/02 13:32:30;;;;;;;5.90;2.80;;;;;;;;;;5091619;28;20792;-64
2021/03/02 13:34:57;;;;;;;6.40;4.03;;;;;;;;;;5091708;28;20375;-63
2021/03/02 13:37:23;;;;;;;4.90;3.20;;;;;;;;;;5091000;28;20517;-64
2021/03/02 13:39:50;;;;;;;3.93;2.57;;;;;;;;;;5089371;28;20455;-64
2021/03/02 13:42:20;;;;;;;5.47;2.87;;;;;;;;;;5091382;28;20403;-64
2021/03/02 13:44:46;;;;;;;4.80;3.20;;;;;;;;;;5091192;28;20396;-64
2021/03/02 13:47:12;;;;;;;6.97;4.77;;;;;;;;;;5091080;28;20434;-64
2021/03/02 13:49:38;;;;;;;6.77;3.10;;;;;;;;;;5089911;28;20406;-64
2021/03/02 13:52:05;;;;;;;7.73;3.13;;;;;;;;;;5090321;28;20440;-64
2021/03/02 13:54:31;;;;;;;5.57;2.87;;;;;;;;;;5091251;28;20775;-64
2021/03/02 13:57:00;;;;;;;4.13;3.30;;;;;;;;;;5091113;28;20462;-64
2021/03/02 13:59:26;;;;;;;6.20;3.87;;;;;;;;;;5090158;28;20484;-64
2021/03/02 14:01:52;;;;;;;8.53;2.97;;;;;;;;;;5089296;28;20813;-64
2021/03/02 14:04:19;;;;;;;6.03;3.70;;;;;;;;;;5091216;28;20387;-64
2021/03/02 14:06:45;;;;;;;6.00;3.60;;;;;;;;;;5091360;28;20427;-65
2021/03/02 14:09:11;;;;;;;6.47;2.40;;;;;;;;;;5090189;28;20939;-64
2021/03/02 14:11:37;;;;;;;9.70;3.50;;;;;;;;;;5089863;28;20444;-64
2021/03/02 14:14:04;;;;;;;5.97;3.50;;;;;;;;;;5089530;28;20416;-64
2021/03/02 14:16:32;;;;;;;7.40;2.63;;;;;;;;;;5090839;28;20973;-64
2021/03/02 14:18:58;;;;;;;6.20;3.27;;;;;;;;;;5090122;28;20436;-64
2021/03/02 14:21:24;;;;;;;4.00;2.90;;;;;;;;;;5090889;28;20471;-64
2021/03/02 14:23:51;;;;;;;5.03;2.97;;;;;;;;;;5089405;28;20415;-65
2021/03/02 14:26:17;;;;;;;3.80;2.27;;;;;;;;;;5090772;28;20415;-65
2021/03/02 14:28:44;;;;;;;5.70;4.67;;;;;;;;;;5090290;28;20420;-64
2021/03/02 14:31:13;;;;;;;6.43;2.90;;;;;;;;;;5090515;28;20416;-64
2021/03/02 14:33:40;;;;;;;2.83;2.20;;;;;;;;;;5090385;28;20408;-64
2021/03/02 14:36:06;;;;;;;2.63;2.43;;;;;;;;;;5089200;28;20408;-64
2021/03/02 14:38:33;;;;;;;3.70;2.80;;;;;;;;;;5090432;28;20474;-64
2021/03/02 14:41:03;;;;;;;2.17;1.97;;;;;;;;;;5089872;28;20411;-64
2021/03/02 14:43:31;;;;;;;4.50;3.47;;;;;;;;;;5090971;28;20400;-64